createdAt,value
2017-10-19T00:00:15.336Z,98.13
2017-10-19T00:01:15.317Z,98.13
2017-10-19T00:02:15.302Z,98.22
2017-10-19T00:03:14.964Z,98.32
2017-10-19T00:04:15.290Z,98.03
2017-10-19T00:05:15.276Z,97.75
2017-10-19T00:06:15.272Z,98.22
2017-10-19T00:07:15.297Z,98.13
2017-10-19T00:08:14.920Z,98.22
2017-10-19T00:09:15.249Z,98.03
2017-10-19T00:10:15.236Z,98.13
2017-10-19T00:11:15.225Z,98.22
2017-10-19T00:12:15.223Z,98.13
2017-10-19T00:13:15.235Z,98.13
2017-10-19T00:14:15.201Z,98.03
2017-10-19T00:15:15.192Z,98.32
2017-10-19T00:16:15.185Z,98.03
2017-10-19T00:17:15.173Z,98.03
2017-10-19T00:18:14.832Z,97.84
2017-10-19T00:19:15.155Z,98.13
2017-10-19T00:20:15.146Z,98.32
2017-10-19T00:21:15.138Z,98.51
2017-10-19T00:22:15.129Z,98.51
2017-10-19T00:23:15.120Z,98.51
2017-10-19T00:24:15.112Z,98.32
2017-10-19T00:25:15.101Z,98.51
2017-10-19T00:26:15.096Z,98.41
2017-10-19T00:27:15.083Z,97.94
2017-10-19T00:28:15.076Z,98.32
2017-10-19T00:29:15.071Z,98.6
2017-10-19T00:30:15.057Z,98.6
2017-10-19T00:31:14.718Z,98.51
2017-10-19T00:32:15.047Z,98.99
2017-10-19T00:33:15.035Z,99.18
2017-10-19T00:34:15.023Z,98.99
2017-10-19T00:35:15.013Z,99.18
2017-10-19T00:36:15.013Z,98.89
2017-10-19T00:37:14.999Z,99.18
2017-10-19T00:38:14.988Z,99.18
2017-10-19T00:39:14.981Z,98.89
2017-10-19T00:40:14.969Z,98.79
2017-10-19T00:41:14.959Z,98.99
2017-10-19T00:42:14.954Z,98.79
2017-10-19T00:43:14.948Z,99.18
2017-10-19T00:44:14.933Z,99.18
2017-10-19T00:45:14.929Z,99.18
2017-10-19T00:46:14.918Z,99.18
2017-10-19T00:47:14.908Z,98.79
2017-10-19T00:48:14.568Z,99.08
2017-10-19T00:49:14.893Z,99.08
2017-10-19T00:50:14.883Z,99.18
2017-10-19T00:51:14.541Z,98.99
2017-10-19T00:52:14.864Z,98.99
2017-10-19T00:53:14.863Z,98.99
2017-10-19T00:54:14.516Z,98.89
2017-10-19T00:55:14.841Z,99.08
2017-10-19T00:56:14.827Z,99.08
2017-10-19T00:57:14.822Z,99.08
2017-10-19T00:58:14.811Z,99.18
2017-10-19T00:59:14.808Z,99.18
2017-10-19T01:00:14.792Z,98.99
2017-10-19T01:01:14.783Z,98.89
2017-10-19T01:02:14.775Z,98.89
2017-10-19T01:03:14.763Z,98.99
2017-10-19T01:04:14.758Z,98.89
2017-10-19T01:05:14.760Z,98.99
2017-10-19T01:06:14.737Z,99.08
2017-10-19T01:07:14.727Z,99.18
2017-10-19T01:08:14.720Z,98.94
2017-10-19T01:09:14.711Z,98.89
2017-10-19T01:10:14.706Z,99.03
2017-10-19T01:11:14.696Z,98.94
2017-10-19T01:12:14.687Z,99.03
2017-10-19T01:13:14.678Z,99.13
2017-10-19T01:14:14.668Z,99.08
2017-10-19T01:15:14.658Z,98.84
2017-10-19T01:16:14.651Z,98.84
2017-10-19T01:17:14.640Z,98.94
2017-10-19T01:18:14.630Z,98.89
2017-10-19T01:19:14.625Z,98.89
2017-10-19T01:20:14.613Z,98.84
2017-10-19T01:21:14.604Z,98.79
2017-10-19T01:22:14.596Z,99.13
2017-10-19T01:23:14.584Z,99.22
2017-10-19T01:24:14.577Z,98.94
2017-10-19T01:25:14.569Z,99.22
2017-10-19T01:26:14.561Z,99.13
2017-10-19T01:27:14.548Z,99.13
2017-10-19T01:28:14.542Z,99.13
2017-10-19T01:29:14.529Z,98.84
2017-10-19T01:30:14.525Z,98.84
2017-10-19T01:31:14.516Z,98.94
2017-10-19T01:32:14.512Z,98.94
2017-10-19T01:33:14.497Z,98.94
2017-10-19T01:34:14.156Z,98.84
2017-10-19T01:35:14.485Z,98.84
2017-10-19T01:36:14.469Z,98.84
2017-10-19T01:37:14.455Z,98.65
2017-10-19T01:38:14.450Z,98.84
2017-10-19T01:39:14.443Z,98.74
2017-10-19T01:40:14.435Z,98.84
2017-10-19T01:41:14.432Z,98.84
2017-10-19T01:42:14.418Z,98.84
2017-10-19T01:43:14.404Z,98.84
2017-10-19T01:44:14.396Z,98.74
2017-10-19T01:45:14.388Z,98.84
2017-10-19T01:46:14.378Z,98.94
2017-10-19T01:47:14.368Z,98.65
2017-10-19T01:48:14.028Z,98.84
2017-10-19T01:49:14.348Z,99.03
2017-10-19T01:50:14.341Z,98.65
2017-10-19T01:51:14.000Z,98.74
2017-10-19T01:52:14.338Z,98.84
2017-10-19T01:53:13.989Z,98.74
2017-10-19T01:54:14.305Z,98.84
2017-10-19T01:55:14.292Z,98.65
2017-10-19T01:56:13.957Z,98.84
2017-10-19T01:57:13.943Z,98.84
2017-10-19T01:58:14.523Z,98.94
2017-10-19T01:59:14.259Z,99.03
2017-10-19T02:00:13.918Z,98.84
2017-10-19T02:01:14.241Z,99.03
2017-10-19T02:02:14.231Z,98.84
2017-10-19T02:03:13.891Z,98.84
2017-10-19T02:04:14.212Z,98.84
2017-10-19T02:05:14.204Z,98.84
2017-10-19T02:06:14.196Z,99.03
2017-10-19T02:07:14.188Z,99.03
2017-10-19T02:08:14.174Z,98.94
2017-10-19T02:09:13.834Z,98.84
2017-10-19T02:10:14.157Z,98.84
2017-10-19T02:11:14.152Z,98.94
2017-10-19T02:12:14.141Z,98.84
2017-10-19T02:13:14.134Z,99.13
2017-10-19T02:14:14.119Z,99.13
2017-10-19T02:15:13.779Z,98.84
2017-10-19T02:16:14.104Z,98.74
2017-10-19T02:17:14.094Z,98.65
2017-10-19T02:18:14.087Z,98.94
2017-10-19T02:19:13.741Z,98.84
2017-10-19T02:20:13.734Z,98.74
2017-10-19T02:21:13.726Z,98.84
2017-10-19T02:22:13.717Z,98.74
2017-10-19T02:23:14.046Z,98.65
2017-10-19T02:24:14.035Z,98.94
2017-10-19T02:25:14.022Z,98.84
2017-10-19T02:26:14.016Z,98.65
2017-10-19T02:27:14.003Z,98.74
2017-10-19T02:28:13.660Z,98.74
2017-10-19T02:29:14.243Z,98.55
2017-10-19T02:30:13.974Z,98.84
2017-10-19T02:31:13.971Z,98.65
2017-10-19T02:32:13.959Z,98.84
2017-10-19T02:33:13.986Z,99.03
2017-10-19T02:34:13.609Z,98.74
2017-10-19T02:35:13.928Z,98.79
2017-10-19T02:36:13.922Z,98.55
2017-10-19T02:37:13.909Z,98.55
2017-10-19T02:38:13.908Z,98.5
2017-10-19T02:39:13.894Z,98.98
2017-10-19T02:40:13.551Z,99.08
2017-10-19T02:41:13.873Z,99.08
2017-10-19T02:42:13.866Z,99.08
2017-10-19T02:43:13.522Z,98.69
2017-10-19T02:44:13.849Z,98.79
2017-10-19T02:45:13.834Z,98.79
2017-10-19T02:46:13.833Z,98.79
2017-10-19T02:47:13.838Z,98.88
2017-10-19T02:48:13.809Z,98.79
2017-10-19T02:49:13.804Z,98.5
2017-10-19T02:50:13.790Z,98.79
2017-10-19T02:51:13.786Z,99.17
2017-10-19T02:52:13.777Z,98.98
2017-10-19T02:53:13.770Z,98.88
2017-10-19T02:54:13.756Z,99.08
2017-10-19T02:55:13.409Z,99.08
2017-10-19T02:56:13.747Z,99.27
2017-10-19T02:57:13.393Z,99.27
2017-10-19T02:58:13.714Z,99.08
2017-10-19T02:59:13.709Z,99.08
2017-10-19T03:00:13.612Z,99.08
2017-10-19T03:01:13.686Z,99.08
2017-10-19T03:02:13.682Z,99.08
2017-10-19T03:03:13.667Z,98.88
2017-10-19T03:04:13.656Z,99.27
2017-10-19T03:05:13.646Z,99.08
2017-10-19T03:06:13.636Z,99.08
2017-10-19T03:07:13.625Z,98.98
2017-10-19T03:08:13.621Z,99.08
2017-10-19T03:09:13.610Z,99.08
2017-10-19T03:10:13.266Z,99.08
2017-10-19T03:11:13.595Z,98.98
2017-10-19T03:12:13.586Z,98.98
2017-10-19T03:13:13.570Z,99.08
2017-10-19T03:14:13.561Z,99.08
2017-10-19T03:15:13.550Z,99.08
2017-10-19T03:16:13.542Z,99.27
2017-10-19T03:17:13.533Z,99.46
2017-10-19T03:18:13.189Z,99.27
2017-10-19T03:19:13.207Z,98.69
2017-10-19T03:20:13.171Z,98.83
2017-10-19T03:21:13.494Z,99.55
2017-10-19T03:22:13.487Z,99.55
2017-10-19T03:23:13.475Z,98.98
2017-10-19T03:24:13.464Z,99.65
2017-10-19T03:25:13.454Z,98.69
2017-10-19T03:26:13.114Z,99.36
2017-10-19T03:27:13.437Z,98.88
2017-10-19T03:28:13.095Z,99.27
2017-10-19T03:29:13.419Z,99.08
2017-10-19T03:30:13.413Z,99.74
2017-10-19T03:31:13.318Z,99.36
2017-10-19T03:32:13.386Z,99.74
2017-10-19T03:33:13.376Z,99.65
2017-10-19T03:34:13.371Z,99.74
2017-10-19T03:35:13.359Z,98.93
2017-10-19T03:36:13.017Z,99.36
2017-10-19T03:37:13.341Z,99.41
2017-10-19T03:38:12.998Z,99.22
2017-10-19T03:39:13.320Z,99.22
2017-10-19T03:40:13.309Z,99.46
2017-10-19T03:41:12.968Z,99.55
2017-10-19T03:42:13.290Z,99.65
2017-10-19T03:43:13.282Z,99.6
2017-10-19T03:44:13.273Z,99.6
2017-10-19T03:45:12.932Z,98.74
2017-10-19T03:46:13.254Z,99.74
2017-10-19T03:47:12.916Z,99.69
2017-10-19T03:48:13.232Z,99.55
2017-10-19T03:49:13.225Z,98.93
2017-10-19T03:50:13.214Z,99.6
2017-10-19T03:51:13.205Z,99.55
2017-10-19T03:52:13.193Z,99.02
2017-10-19T03:53:13.192Z,99.6
2017-10-19T03:54:13.174Z,99.69
2017-10-19T03:55:13.167Z,99.69
2017-10-19T03:56:12.823Z,99.02
2017-10-19T03:57:12.812Z,98.65
2017-10-19T03:58:13.136Z,98.74
2017-10-19T03:59:13.126Z,98.74
2017-10-19T04:00:13.116Z,99.02
2017-10-19T04:01:13.107Z,99.02
2017-10-19T04:02:13.350Z,98.93
2017-10-19T04:03:13.094Z,99.02
2017-10-19T04:04:13.110Z,99.02
2017-10-19T04:05:13.065Z,99.5
2017-10-19T04:06:13.065Z,99.02
2017-10-19T04:07:13.049Z,98.93
2017-10-19T04:08:13.040Z,99.02
2017-10-19T04:09:13.038Z,99.6
2017-10-19T04:10:12.689Z,98.74
2017-10-19T04:11:13.013Z,99.69
2017-10-19T04:12:13.001Z,99.79
2017-10-19T04:13:12.988Z,99.79
2017-10-19T04:14:12.983Z,99.6
2017-10-19T04:15:12.973Z,99.6
2017-10-19T04:16:12.960Z,99.6
2017-10-19T04:17:12.620Z,99.79
2017-10-19T04:18:12.945Z,98.93
2017-10-19T04:19:12.931Z,99.02
2017-10-19T04:20:12.926Z,99.5
2017-10-19T04:21:12.918Z,98.55
2017-10-19T04:22:12.571Z,99.6
2017-10-19T04:23:12.894Z,99.55
2017-10-19T04:24:12.884Z,98.46
2017-10-19T04:25:12.540Z,99.31
2017-10-19T04:26:12.866Z,99.12
2017-10-19T04:27:12.858Z,99.46
2017-10-19T04:28:12.843Z,99.46
2017-10-19T04:29:12.834Z,99.27
2017-10-19T04:30:12.823Z,99.08
2017-10-19T04:31:12.822Z,99.27
2017-10-19T04:32:12.811Z,99.17
2017-10-19T04:33:12.462Z,99.27
2017-10-19T04:34:12.787Z,98.98
2017-10-19T04:35:12.775Z,98.98
2017-10-19T04:36:12.767Z,98.5
2017-10-19T04:37:12.768Z,98.69
2017-10-19T04:38:12.746Z,98.69
2017-10-19T04:39:12.405Z,98.69
2017-10-19T04:40:12.739Z,98.98
2017-10-19T04:41:12.720Z,98.79
2017-10-19T04:42:12.376Z,98.79
2017-10-19T04:43:12.721Z,98.79
2017-10-19T04:44:12.690Z,98.84
2017-10-19T04:45:12.349Z,98.84
2017-10-19T04:46:12.698Z,99.03
2017-10-19T04:47:12.670Z,98.84
2017-10-19T04:48:12.326Z,99.03
2017-10-19T04:49:12.644Z,98.84
2017-10-19T04:50:12.632Z,99.03
2017-10-19T04:51:12.623Z,98.94
2017-10-19T04:52:12.620Z,99.03
2017-10-19T04:53:12.641Z,99.03
2017-10-19T04:54:12.597Z,98.84
2017-10-19T04:55:12.588Z,98.84
2017-10-19T04:56:12.578Z,98.65
2017-10-19T04:57:12.571Z,98.74
2017-10-19T04:58:12.561Z,98.65
2017-10-19T04:59:12.217Z,98.46
2017-10-19T05:00:12.539Z,98.55
2017-10-19T05:01:12.530Z,98.65
2017-10-19T05:02:12.523Z,98.7
2017-10-19T05:03:12.514Z,98.51
2017-10-19T05:04:12.176Z,98.6
2017-10-19T05:05:12.503Z,98.7
2017-10-19T05:06:12.487Z,98.7
2017-10-19T05:07:12.479Z,98.7
2017-10-19T05:08:12.470Z,98.32
2017-10-19T05:09:12.130Z,98.41
2017-10-19T05:10:12.450Z,98.7
2017-10-19T05:11:12.441Z,98.79
2017-10-19T05:12:12.433Z,98.79
2017-10-19T05:13:12.423Z,98.94
2017-10-19T05:14:12.083Z,98.89
2017-10-19T05:15:12.410Z,98.75
2017-10-19T05:16:12.068Z,99.22
2017-10-19T05:17:12.389Z,99.13
2017-10-19T05:18:12.383Z,98.46
2017-10-19T05:19:12.380Z,98.56
2017-10-19T05:20:12.030Z,98.27
2017-10-19T05:21:12.362Z,97.99
2017-10-19T05:22:12.342Z,97.89
2017-10-19T05:23:12.337Z,97.8
2017-10-19T05:24:12.330Z,97.8
2017-10-19T05:25:12.317Z,97.8
2017-10-19T05:26:12.310Z,98.27
2017-10-19T05:27:12.302Z,98.18
2017-10-19T05:28:12.296Z,98.18
2017-10-19T05:29:12.282Z,98.08
2017-10-19T05:30:12.276Z,98.18
2017-10-19T05:31:12.268Z,97.99
2017-10-19T05:32:11.931Z,98.18
2017-10-19T05:33:12.252Z,98.18
2017-10-19T05:34:12.251Z,98.36
2017-10-19T05:35:11.902Z,98.27
2017-10-19T05:36:12.225Z,98.18
2017-10-19T05:37:11.887Z,97.89
2017-10-19T05:38:12.209Z,97.89
2017-10-19T05:39:12.201Z,97.99
2017-10-19T05:40:12.192Z,98.36
2017-10-19T05:41:12.181Z,98.46
2017-10-19T05:42:12.175Z,98.46
2017-10-19T05:43:12.166Z,98.36
2017-10-19T05:44:12.161Z,98.27
2017-10-19T05:45:12.159Z,97.99
2017-10-19T05:46:12.142Z,98.27
2017-10-19T05:47:12.128Z,97.99
2017-10-19T05:48:12.129Z,98.18
2017-10-19T05:49:12.112Z,98.18
2017-10-19T05:50:12.107Z,98.18
2017-10-19T05:51:12.102Z,98.18
2017-10-19T05:52:12.097Z,98.18
2017-10-19T05:53:12.081Z,98.27
2017-10-19T05:54:12.071Z,97.89
2017-10-19T05:55:12.059Z,97.99
2017-10-19T05:56:12.054Z,97.89
2017-10-19T05:57:12.049Z,97.99
2017-10-19T05:58:12.037Z,97.99
2017-10-19T05:59:12.028Z,97.89
2017-10-19T06:00:12.022Z,98.36
2017-10-19T06:01:12.035Z,98.18
2017-10-19T06:02:12.000Z,97.89
2017-10-19T06:03:11.993Z,98.18
2017-10-19T06:04:11.988Z,97.99
2017-10-19T06:05:11.980Z,97.99
2017-10-19T06:06:11.638Z,98.36
2017-10-19T06:07:11.961Z,98.18
2017-10-19T06:08:11.959Z,98.18
2017-10-19T06:09:11.611Z,97.99
2017-10-19T06:10:11.935Z,98.27
2017-10-19T06:11:11.928Z,98.36
2017-10-19T06:12:11.587Z,98.08
2017-10-19T06:13:11.577Z,97.99
2017-10-19T06:14:11.571Z,97.99
2017-10-19T06:15:11.563Z,98.27
2017-10-19T06:16:11.552Z,97.99
2017-10-19T06:17:11.542Z,97.89
2017-10-19T06:18:11.537Z,98.32
2017-10-19T06:19:11.856Z,98.42
2017-10-19T06:20:11.850Z,98.32
2017-10-19T06:21:11.518Z,97.94
2017-10-19T06:22:11.840Z,98.03
2017-10-19T06:23:11.826Z,98.22
2017-10-19T06:24:11.823Z,98.32
2017-10-19T06:25:11.813Z,98.22
2017-10-19T06:26:11.816Z,98.22
2017-10-19T06:27:11.793Z,98.32
2017-10-19T06:28:11.783Z,98.22
2017-10-19T06:29:11.777Z,98.22
2017-10-19T06:30:11.769Z,98.32
2017-10-19T06:31:11.763Z,98.42
2017-10-19T06:32:11.418Z,98.51
2017-10-19T06:33:11.745Z,98.13
2017-10-19T06:34:11.738Z,98.61
2017-10-19T06:35:11.397Z,97.94
2017-10-19T06:36:11.716Z,98.13
2017-10-19T06:37:11.709Z,98.42
2017-10-19T06:38:11.955Z,98.42
2017-10-19T06:39:11.363Z,98.13
2017-10-19T06:40:11.688Z,98.13
2017-10-19T06:41:11.681Z,98.13
2017-10-19T06:42:11.668Z,98.22
2017-10-19T06:43:11.331Z,98.22
2017-10-19T06:44:11.655Z,98.22
2017-10-19T06:45:11.657Z,98.03
2017-10-19T06:46:11.638Z,98.03
2017-10-19T06:47:11.635Z,97.94
2017-10-19T06:48:11.628Z,98.22
2017-10-19T06:49:11.281Z,98.08
2017-10-19T06:50:11.608Z,98.08
2017-10-19T06:51:11.266Z,98.27
2017-10-19T06:52:11.590Z,97.99
2017-10-19T06:53:11.582Z,98.56
2017-10-19T06:54:11.574Z,98.18
2017-10-19T06:55:11.572Z,98.08
2017-10-19T06:56:11.229Z,98.18
2017-10-19T06:57:11.552Z,97.89
2017-10-19T06:58:11.544Z,97.89
2017-10-19T06:59:11.536Z,98.08
2017-10-19T07:00:11.530Z,98.08
2017-10-19T07:01:11.525Z,98.08
2017-10-19T07:02:11.184Z,98.08
2017-10-19T07:03:11.505Z,98.08
2017-10-19T07:04:11.506Z,97.99
2017-10-19T07:05:11.488Z,98.18
2017-10-19T07:06:11.151Z,97.42
2017-10-19T07:07:11.477Z,97.71
2017-10-19T07:08:11.468Z,97.89
2017-10-19T07:09:11.714Z,97.8
2017-10-19T07:10:11.457Z,97.8
2017-10-19T07:11:11.443Z,97.99
2017-10-19T07:12:11.453Z,97.71
2017-10-19T07:13:11.428Z,97.42
2017-10-19T07:14:11.092Z,97.71
2017-10-19T07:15:11.417Z,97.61
2017-10-19T07:16:11.409Z,97.75
2017-10-19T07:17:11.405Z,97.85
2017-10-19T07:18:11.391Z,97.75
2017-10-19T07:19:11.386Z,97.75
2017-10-19T07:20:11.046Z,97.66
2017-10-19T07:21:11.041Z,96.7
2017-10-19T07:22:11.035Z,96.89
2017-10-19T07:23:11.024Z,97.18
2017-10-19T07:24:11.018Z,97.66
2017-10-19T07:25:11.342Z,97.94
2017-10-19T07:26:11.003Z,97.85
2017-10-19T07:27:11.329Z,97.85
2017-10-19T07:28:11.321Z,97.75
2017-10-19T07:29:11.315Z,97.94
2017-10-19T07:30:11.305Z,97.75
2017-10-19T07:31:10.966Z,97.56
2017-10-19T07:32:11.291Z,97.75
2017-10-19T07:33:10.951Z,97.75
2017-10-19T07:34:11.274Z,97.47
2017-10-19T07:35:10.937Z,97.61
2017-10-19T07:36:10.931Z,97.8
2017-10-19T07:37:10.924Z,97.89
2017-10-19T07:38:11.249Z,97.8
2017-10-19T07:39:10.910Z,97.89
2017-10-19T07:40:11.248Z,97.23
2017-10-19T07:41:11.226Z,97.23
2017-10-19T07:42:11.220Z,97.13
2017-10-19T07:43:11.214Z,97.32
2017-10-19T07:44:11.206Z,97.28
2017-10-19T07:45:11.403Z,97.28
2017-10-19T07:46:10.861Z,96.89
2017-10-19T07:47:10.859Z,97.18
2017-10-19T07:48:11.183Z,97.56
2017-10-19T07:49:11.177Z,96.7
2017-10-19T07:50:11.165Z,96.51
2017-10-19T07:51:11.159Z,96.51
2017-10-19T07:52:11.156Z,96.8
2017-10-19T07:53:11.145Z,96.89
2017-10-19T07:54:10.808Z,96.13
2017-10-19T07:55:11.138Z,96.84
2017-10-19T07:56:10.795Z,96.22
2017-10-19T07:57:11.129Z,96.13
2017-10-19T07:58:11.115Z,96.32
2017-10-19T07:59:11.107Z,96.51
2017-10-19T08:00:11.101Z,96.37
2017-10-19T08:01:11.093Z,96.47
2017-10-19T08:02:10.755Z,95.98
2017-10-19T08:03:10.751Z,96.27
2017-10-19T08:04:11.075Z,96.37
2017-10-19T08:05:11.074Z,96.56
2017-10-19T08:06:10.730Z,96.47
2017-10-19T08:07:11.053Z,95.61
2017-10-19T08:08:11.056Z,96.18
2017-10-19T08:09:10.714Z,95.79
2017-10-19T08:10:11.049Z,95.98
2017-10-19T08:11:11.280Z,96.18
2017-10-19T08:12:11.025Z,95.79
2017-10-19T08:13:11.017Z,95.79
2017-10-19T08:14:11.016Z,95.22
2017-10-19T08:15:11.012Z,96.03
2017-10-19T08:16:10.668Z,95.36
2017-10-19T08:17:10.661Z,95.17
2017-10-19T08:18:10.987Z,95.27
2017-10-19T08:19:10.981Z,95.36
2017-10-19T08:20:10.659Z,95.36
2017-10-19T08:21:10.966Z,94.98
2017-10-19T08:22:10.963Z,94.98
2017-10-19T08:23:10.957Z,95.07
2017-10-19T08:24:10.620Z,94.55
2017-10-19T08:25:10.616Z,94.55
2017-10-19T08:26:10.617Z,95.03
2017-10-19T08:27:10.600Z,94.84
2017-10-19T08:28:10.931Z,95.12
2017-10-19T08:29:10.591Z,94.55
2017-10-19T08:30:10.918Z,94.17
2017-10-19T08:31:10.581Z,94.02
2017-10-19T08:32:10.573Z,94.31
2017-10-19T08:33:10.572Z,94.21
2017-10-19T08:34:10.566Z,93.74
2017-10-19T08:35:10.891Z,93.74
2017-10-19T08:36:10.885Z,94.12
2017-10-19T08:37:10.884Z,93.64
2017-10-19T08:38:10.542Z,93.93
2017-10-19T08:39:10.536Z,93.74
2017-10-19T08:40:10.535Z,93.74
2017-10-19T08:41:10.524Z,93.93
2017-10-19T08:42:10.852Z,93.83
2017-10-19T08:43:10.515Z,93.78
2017-10-19T08:44:10.512Z,93.59
2017-10-19T08:45:10.508Z,93.11
2017-10-19T08:46:10.501Z,92.73
2017-10-19T08:47:10.829Z,93.02
2017-10-19T08:48:10.826Z,92.63
2017-10-19T08:49:11.018Z,93.02
2017-10-19T08:50:10.819Z,92.82
2017-10-19T08:51:10.809Z,92.82
2017-10-19T08:52:10.805Z,92.82
2017-10-19T08:53:10.797Z,92.92
2017-10-19T08:54:10.795Z,92.44
2017-10-19T08:55:10.790Z,92.73
2017-10-19T08:56:10.451Z,92.63
2017-10-19T08:57:10.778Z,92.82
2017-10-19T08:58:10.775Z,92.82
2017-10-19T08:59:10.437Z,92.54
2017-10-19T09:00:10.431Z,92.44
2017-10-19T09:01:10.425Z,92.49
2017-10-19T09:02:10.423Z,92.1
2017-10-19T09:03:10.752Z,93.16
2017-10-19T09:04:10.743Z,93.06
2017-10-19T09:05:10.743Z,92.3
2017-10-19T09:06:10.403Z,92.49
2017-10-19T09:07:10.730Z,93.16
2017-10-19T09:08:10.392Z,92.39
2017-10-19T09:09:10.719Z,92.58
2017-10-19T09:10:10.392Z,91.53
2017-10-19T09:11:10.714Z,91.82
2017-10-19T09:12:10.705Z,91.63
2017-10-19T09:13:10.704Z,92.3
2017-10-19T09:14:10.367Z,91.63
2017-10-19T09:15:10.362Z,92.1
2017-10-19T09:16:10.694Z,91.63
2017-10-19T09:17:10.352Z,91.34
2017-10-19T09:18:10.356Z,91.34
2017-10-19T09:19:10.343Z,92.1
2017-10-19T09:20:10.343Z,92.3
2017-10-19T09:21:10.669Z,92.2
2017-10-19T09:22:10.664Z,91.63
2017-10-19T09:23:10.662Z,91.24
2017-10-19T09:24:10.665Z,91.82
2017-10-19T09:25:10.319Z,91.72
2017-10-19T09:26:10.650Z,91.91
2017-10-19T09:27:10.313Z,91.82
2017-10-19T09:28:10.645Z,92.01
2017-10-19T09:29:10.630Z,92.3
2017-10-19T09:30:10.628Z,92.01
2017-10-19T09:31:10.620Z,92.58
2017-10-19T09:32:10.285Z,92.39
2017-10-19T09:33:10.618Z,92.39
2017-10-19T09:34:10.277Z,92.39
2017-10-19T09:35:10.705Z,92.1
2017-10-19T09:36:10.270Z,92.01
2017-10-19T09:37:10.597Z,92.2
2017-10-19T09:38:10.597Z,91.63
2017-10-19T09:39:10.596Z,91.63
2017-10-19T09:40:10.250Z,91.43
2017-10-19T09:41:10.248Z,91.43
2017-10-19T09:42:10.577Z,91.91
2017-10-19T09:43:10.568Z,92.39
2017-10-19T09:44:10.563Z,92.39
2017-10-19T09:45:10.566Z,91.63
2017-10-19T09:46:10.556Z,92.01
2017-10-19T09:47:10.220Z,92.01
2017-10-19T09:48:10.216Z,92.2
2017-10-19T09:49:10.539Z,92.2
2017-10-19T09:50:10.203Z,92.49
2017-10-19T09:51:10.532Z,92.1
2017-10-19T09:52:10.544Z,92.1
2017-10-19T09:53:10.191Z,92.01
2017-10-19T09:54:10.186Z,92.1
2017-10-19T09:55:10.182Z,92.2
2017-10-19T09:56:10.178Z,92.2
2017-10-19T09:57:10.876Z,92.2
2017-10-19T09:58:10.503Z,92.3
2017-10-19T09:59:10.163Z,91.91
2017-10-19T10:00:10.491Z,92.1
2017-10-19T10:01:10.490Z,92.1
2017-10-19T10:02:10.491Z,92.54
2017-10-19T10:03:10.478Z,92.34
2017-10-19T10:04:10.479Z,91.67
2017-10-19T10:05:10.486Z,92.24
2017-10-19T10:06:10.135Z,91.48
2017-10-19T10:07:10.130Z,91.48
2017-10-19T10:08:10.123Z,91.57
2017-10-19T10:09:10.454Z,91.48
2017-10-19T10:10:10.457Z,91.67
2017-10-19T10:11:10.444Z,91.24
2017-10-19T10:12:10.108Z,91.57
2017-10-19T10:13:10.435Z,91.96
2017-10-19T10:14:10.435Z,92.1
2017-10-19T10:15:10.428Z,91.91
2017-10-19T10:16:10.090Z,92.15
2017-10-19T10:17:10.421Z,92.05
2017-10-19T10:18:10.415Z,92.24
2017-10-19T10:19:10.079Z,92.24
2017-10-19T10:20:10.415Z,92.1
2017-10-19T10:21:10.072Z,91.67
2017-10-19T10:22:10.066Z,91.67
2017-10-19T10:23:10.395Z,91.48
2017-10-19T10:24:10.390Z,91.48
2017-10-19T10:25:10.385Z,91.48
2017-10-19T10:26:10.051Z,91.67
2017-10-19T10:27:10.377Z,91.48
2017-10-19T10:28:10.374Z,91.38
2017-10-19T10:29:10.040Z,91.28
2017-10-19T10:30:10.364Z,91.57
2017-10-19T10:31:10.029Z,91.57
2017-10-19T10:32:10.029Z,91.24
2017-10-19T10:33:10.021Z,91.77
2017-10-19T10:34:10.018Z,91.67
2017-10-19T10:35:10.346Z,91.19
2017-10-19T10:36:10.015Z,91
2017-10-19T10:37:10.014Z,91.24
2017-10-19T10:38:10.003Z,91.72
2017-10-19T10:39:10.327Z,90.75
2017-10-19T10:40:09.992Z,91.24
2017-10-19T10:41:10.320Z,90.37
2017-10-19T10:42:09.988Z,91.24
2017-10-19T10:43:09.981Z,90.56
2017-10-19T10:44:09.976Z,90.03
2017-10-19T10:45:10.308Z,90.03
2017-10-19T10:46:09.973Z,90.03
2017-10-19T10:47:09.964Z,90.32
2017-10-19T10:48:10.293Z,90.52
2017-10-19T10:49:10.288Z,90.42
2017-10-19T10:50:10.288Z,90.52
2017-10-19T10:51:10.284Z,90.42
2017-10-19T10:52:10.279Z,90.32
2017-10-19T10:53:10.277Z,90.22
2017-10-19T10:54:10.274Z,89.46
2017-10-19T10:55:10.272Z,89.36
2017-10-19T10:56:09.931Z,89.26
2017-10-19T10:57:10.262Z,90.22
2017-10-19T10:58:10.257Z,90.13
2017-10-19T10:59:10.255Z,90.42
2017-10-19T11:00:10.257Z,89.46
2017-10-19T11:01:09.915Z,89.5
2017-10-19T11:02:09.909Z,89.02
2017-10-19T11:03:09.909Z,89.02
2017-10-19T11:04:10.237Z,89.46
2017-10-19T11:05:09.901Z,89.94
2017-10-19T11:06:09.895Z,90.13
2017-10-19T11:07:09.897Z,89.75
2017-10-19T11:08:09.888Z,90.22
2017-10-19T11:09:09.884Z,90.13
2017-10-19T11:10:09.883Z,89.36
2017-10-19T11:11:10.215Z,90.13
2017-10-19T11:12:10.209Z,90.42
2017-10-19T11:13:10.207Z,90.42
2017-10-19T11:14:09.869Z,89.65
2017-10-19T11:15:09.866Z,90.22
2017-10-19T11:16:09.861Z,90.22
2017-10-19T11:17:09.863Z,89.94
2017-10-19T11:18:10.188Z,89.84
2017-10-19T11:19:10.184Z,90.22
2017-10-19T11:20:09.847Z,89.36
2017-10-19T11:21:10.176Z,90.42
2017-10-19T11:22:10.172Z,90.13
2017-10-19T11:23:09.836Z,90.03
2017-10-19T11:24:10.169Z,90.32
2017-10-19T11:25:10.163Z,90.42
2017-10-19T11:26:09.832Z,90.13
2017-10-19T11:27:10.158Z,90.03
2017-10-19T11:28:10.157Z,90.32
2017-10-19T11:29:09.818Z,90.61
2017-10-19T11:30:10.147Z,90.61
2017-10-19T11:31:09.808Z,90.8
2017-10-19T11:32:09.803Z,90.7
2017-10-19T11:33:10.135Z,90.17
2017-10-19T11:34:09.798Z,90.17
2017-10-19T11:35:10.160Z,90.08
2017-10-19T11:36:10.130Z,90.37
2017-10-19T11:37:10.118Z,89.98
2017-10-19T11:38:10.114Z,89.69
2017-10-19T11:39:10.114Z,89.69
2017-10-19T11:40:09.778Z,89.6
2017-10-19T11:41:09.774Z,89.6
2017-10-19T11:42:10.106Z,89.31
2017-10-19T11:43:09.767Z,89.98
2017-10-19T11:44:10.099Z,89.69
2017-10-19T11:45:09.761Z,89.6
2017-10-19T11:46:10.093Z,90.08
2017-10-19T11:47:09.758Z,89.89
2017-10-19T11:48:10.086Z,89.89
2017-10-19T11:49:10.081Z,89.98
2017-10-19T11:50:10.086Z,89.4
2017-10-19T11:51:09.742Z,89.4
2017-10-19T11:52:10.069Z,89.36
2017-10-19T11:53:10.070Z,89.54
2017-10-19T11:54:10.074Z,89.31
2017-10-19T11:55:10.063Z,89.4
2017-10-19T11:56:10.059Z,89.4
2017-10-19T11:57:10.052Z,90.03
2017-10-19T11:58:10.052Z,89.74
2017-10-19T11:59:10.052Z,89.64
2017-10-19T12:00:10.055Z,89.36
2017-10-19T12:01:10.045Z,89.54
2017-10-19T12:02:10.051Z,89.74
2017-10-19T12:03:09.703Z,88.97
2017-10-19T12:04:09.701Z,88.78
2017-10-19T12:05:09.697Z,89.26
2017-10-19T12:06:10.029Z,89.26
2017-10-19T12:07:10.025Z,89.45
2017-10-19T12:08:10.019Z,89.5
2017-10-19T12:09:10.025Z,89.31
2017-10-19T12:10:10.046Z,89.45
2017-10-19T12:11:10.009Z,89.4
2017-10-19T12:12:09.679Z,90.17
2017-10-19T12:13:10.009Z,89.98
2017-10-19T12:14:10.000Z,89.89
2017-10-19T12:15:09.997Z,89.83
2017-10-19T12:16:09.996Z,89.74
2017-10-19T12:17:09.660Z,89.93
2017-10-19T12:18:09.990Z,89.54
2017-10-19T12:19:09.983Z,89.45
2017-10-19T12:20:09.652Z,90.12
2017-10-19T12:21:09.978Z,90.22
2017-10-19T12:22:09.642Z,90.08
2017-10-19T12:23:09.983Z,90.22
2017-10-19T12:24:09.635Z,90.08
2017-10-19T12:25:09.631Z,90.46
2017-10-19T12:26:09.629Z,90.56
2017-10-19T12:27:09.977Z,90.66
2017-10-19T12:28:09.962Z,90.46
2017-10-19T12:29:09.953Z,89.98
2017-10-19T12:30:09.618Z,90.08
2017-10-19T12:31:09.943Z,90.84
2017-10-19T12:32:09.949Z,91.42
2017-10-19T12:33:09.943Z,91.42
2017-10-19T12:34:09.940Z,91.04
2017-10-19T12:35:09.598Z,91.13
2017-10-19T12:36:09.928Z,91.42
2017-10-19T12:37:09.594Z,90.7
2017-10-19T12:38:09.922Z,90.12
2017-10-19T12:39:09.916Z,90.12
2017-10-19T12:40:09.582Z,90.31
2017-10-19T12:41:09.913Z,89.83
2017-10-19T12:42:09.918Z,90.22
2017-10-19T12:43:09.907Z,90.31
2017-10-19T12:44:09.903Z,90.12
2017-10-19T12:45:09.901Z,90.31
2017-10-19T12:46:09.564Z,90.03
2017-10-19T12:47:09.888Z,90.12
2017-10-19T12:48:09.556Z,90.22
2017-10-19T12:49:09.554Z,89.93
2017-10-19T12:50:09.882Z,90.12
2017-10-19T12:51:09.888Z,90.08
2017-10-19T12:52:09.877Z,90.37
2017-10-19T12:53:09.895Z,90.46
2017-10-19T12:54:09.869Z,90.27